Time;durP1;ratioP1;P1;durP2;ratioP2;P2;SDS_P1;SDS_P2;PMS_P1;PMS_P2;Temp;Humidity;BMP_temperature;BMP_pressure;BME280_temperature;BME280_humidity;BME280_pressure;Samples;Min_cycle;Max_cycle;Signal;HPM_P1;HPM_P2
2022/01/30 00:00:59;;;;;;;3.15;1.38;;;8.00;99.90;;;;;;5022172;28;20213;-86
2022/01/30 00:04:06;;;;;;;3.00;1.40;;;8.10;99.90;;;;;;5020739;28;20295;-87
2022/01/30 00:06:36;;;;;;;2.30;0.70;;;8.00;99.90;;;;;;5021777;28;20210;-87
2022/01/30 00:09:04;;;;;;;3.25;1.20;;;8.00;99.90;;;;;;5021775;28;20306;-87
2022/01/30 00:11:36;;;;;;;3.10;1.00;;;8.10;99.90;;;;;;5019960;28;20213;-87
2022/01/30 00:14:12;;;;;;;2.85;1.05;;;8.10;99.90;;;;;;5021086;28;20230;-87
2022/01/30 00:16:42;;;;;;;3.05;0.90;;;8.20;99.90;;;;;;5021054;28;20291;-87
2022/01/30 00:25:12;;;;;;;4.25;1.42;;;8.30;99.90;;;;;;5019200;28;20671;-87
2022/01/30 00:27:48;;;;;;;3.78;1.10;;;8.30;99.90;;;;;;5019543;28;20238;-87
2022/01/30 00:30:17;;;;;;;2.80;1.00;;;8.20;99.90;;;;;;5020588;28;20188;-86
2022/01/30 00:32:44;;;;;;;3.67;1.17;;;8.20;99.90;;;;;;5027865;28;20223;-86
2022/01/30 00:35:13;;;;;;;3.10;0.90;;;8.20;99.90;;;;;;5037026;28;20231;-86
2022/01/30 00:37:43;;;;;;;3.03;1.35;;;8.30;99.90;;;;;;5035427;28;20200;-86
2022/01/30 00:40:13;;;;;;;3.17;1.20;;;8.30;99.90;;;;;;5038432;28;20199;-86
2022/01/30 00:42:54;;;;;;;2.78;1.00;;;8.40;99.90;;;;;;5038541;28;20341;-87
2022/01/30 00:45:21;;;;;;;3.60;1.20;;;8.40;99.90;;;;;;5037437;28;20281;-87
2022/01/30 00:47:51;;;;;;;2.78;1.15;;;8.40;99.90;;;;;;5027196;28;20242;-87
2022/01/30 00:50:21;;;;;;;3.55;1.40;;;8.40;99.90;;;;;;5025373;28;20215;-87
2022/01/30 00:52:53;;;;;;;4.72;1.10;;;8.40;99.90;;;;;;5024046;28;20230;-86
2022/01/30 00:55:20;;;;;;;3.13;1.25;;;8.50;99.90;;;;;;5022955;28;20223;-86
2022/01/30 00:57:47;;;;;;;3.22;1.08;;;8.50;99.90;;;;;;5023422;28;20290;-86
2022/01/30 01:00:24;;;;;;;3.35;1.55;;;8.60;99.90;;;;;;5022628;28;20211;-86
2022/01/30 01:02:51;;;;;;;3.83;1.20;;;8.60;99.90;;;;;;5024528;28;20266;-86
2022/01/30 01:05:27;;;;;;;2.78;1.10;;;8.60;99.90;;;;;;5024318;28;20281;-88
2022/01/30 01:07:56;;;;;;;3.50;1.20;;;8.50;99.90;;;;;;5032744;28;20180;-86
2022/01/30 01:10:31;;;;;;;2.85;1.17;;;8.60;99.90;;;;;;5029529;28;20250;-87
2022/01/30 01:24:11;;;;;;;2.80;1.08;;;8.60;99.90;;;;;;5028527;28;20222;-87
2022/01/30 01:26:40;;;;;;;2.60;1.02;;;8.60;99.90;;;;;;5034820;28;20275;-87
2022/01/30 01:29:08;;;;;;;3.60;1.10;;;8.70;99.90;;;;;;5037447;28;20242;-87
2022/01/30 01:31:43;;;;;;;2.80;1.30;;;8.60;99.90;;;;;;5030083;28;20498;-87
2022/01/30 01:34:30;;;;;;;3.57;1.30;;;8.70;99.90;;;;;;5021900;28;20211;-87
2022/01/30 01:37:00;;;;;;;3.03;1.20;;;8.70;99.90;;;;;;5027479;28;20545;-87
2022/01/30 01:39:31;;;;;;;3.80;1.70;;;8.60;99.90;;;;;;5026998;28;20247;-86
2022/01/30 01:41:58;;;;;;;5.53;1.33;;;8.60;99.90;;;;;;5019347;28;20247;-86
2022/01/30 01:44:34;;;;;;;3.30;1.33;;;8.60;99.90;;;;;;5018759;28;20617;-86
2022/01/30 01:47:05;;;;;;;2.75;1.23;;;8.60;99.90;;;;;;5017093;28;20188;-87
2022/01/30 01:49:51;;;;;;;2.80;1.10;;;8.60;99.90;;;;;;5017081;28;20319;-86
2022/01/30 01:52:23;;;;;;;4.82;1.20;;;8.60;99.90;;;;;;5017498;28;20227;-87
2022/01/30 01:54:56;;;;;;;2.70;1.00;;;8.60;99.90;;;;;;5017469;28;20208;-87
2022/01/30 01:57:26;;;;;;;2.67;1.02;;;8.40;99.90;;;;;;5029309;28;20208;-87
2022/01/30 01:59:53;;;;;;;3.17;1.35;;;8.60;99.90;;;;;;5030465;28;20204;-87
2022/01/30 02:02:27;;;;;;;3.65;1.95;;;8.60;99.90;;;;;;5032162;28;20300;-87
2022/01/30 02:04:57;;;;;;;2.88;1.40;;;8.60;99.90;;;;;;5027293;28;20204;-85
2022/01/30 02:08:14;;;;;;;3.55;1.00;;;8.60;99.90;;;;;;5019653;28;20215;-86
2022/01/30 02:10:34;;;;;;;2.97;1.00;;;8.70;99.90;;;;;;5018689;28;20591;-86
2022/01/30 02:13:16;;;;;;;2.75;1.23;;;8.70;99.90;;;;;;5017957;28;20531;-87
2022/01/30 02:24:07;;;;;;;2.58;0.90;;;8.60;99.90;;;;;;5016786;28;20203;-86
2022/01/30 02:26:40;;;;;;;3.30;1.40;;;8.60;99.90;;;;;;5016075;28;20211;-86
2022/01/30 02:29:07;;;;;;;3.35;1.40;;;8.50;99.90;;;;;;5016203;28;20207;-86
2022/01/30 02:31:39;;;;;;;3.42;1.45;;;8.60;99.90;;;;;;5020668;28;20405;-86
2022/01/30 02:34:06;;;;;;;2.72;1.00;;;8.50;99.90;;;;;;5016540;28;20246;-87
2022/01/30 02:36:33;;;;;;;2.80;1.20;;;8.60;99.90;;;;;;5015734;28;20277;-87
2022/01/30 02:39:03;;;;;;;3.60;1.38;;;8.60;99.90;;;;;;5026173;28;20278;-86
2022/01/30 02:41:32;;;;;;;5.07;1.40;;;8.60;99.90;;;;;;5030466;28;20302;-87
2022/01/30 02:44:10;;;;;;;2.70;0.90;;;8.60;99.90;;;;;;5027536;28;20215;-87
2022/01/30 02:46:42;;;;;;;3.97;1.17;;;8.60;99.90;;;;;;5017562;28;20187;-87
2022/01/30 02:49:29;;;;;;;3.28;1.33;;;8.60;99.90;;;;;;5020971;28;20188;-86
2022/01/30 02:51:58;;;;;;;3.45;1.50;;;8.60;99.90;;;;;;5030949;28;20231;-86
2022/01/30 02:54:26;;;;;;;2.90;1.13;;;8.60;99.90;;;;;;5033843;28;20242;-87
2022/01/30 02:56:54;;;;;;;2.90;1.02;;;8.60;99.90;;;;;;5028013;28;20278;-87
2022/01/30 02:59:21;;;;;;;3.72;1.38;;;8.70;99.90;;;;;;5018893;28;20204;-86
2022/01/30 03:01:49;;;;;;;2.67;1.17;;;8.70;99.90;;;;;;5016012;28;20319;-87
2022/01/30 03:04:17;;;;;;;3.40;1.35;;;8.60;99.90;;;;;;5015820;28;20206;-87
2022/01/30 03:06:45;;;;;;;3.30;1.40;;;8.60;99.90;;;;;;5015641;28;20219;-87
2022/01/30 03:09:13;;;;;;;2.88;1.23;;;8.70;99.90;;;;;;5025589;28;20267;-87
2022/01/30 03:11:40;;;;;;;3.42;1.70;;;8.80;99.90;;;;;;5024456;28;20314;-87
2022/01/30 03:14:09;;;;;;;5.85;1.50;;;8.80;99.90;;;;;;5017860;28;20280;-86
2022/01/30 03:16:35;;;;;;;3.30;1.50;;;8.90;99.90;;;;;;5015740;28;20267;-86
2022/01/30 03:19:05;;;;;;;3.05;1.00;;;9.00;99.90;;;;;;5032208;28;20230;-86
2022/01/30 03:21:32;;;;;;;6.33;1.30;;;9.00;99.90;;;;;;5028363;28;20231;-86
2022/01/30 03:23:59;;;;;;;4.20;1.33;;;9.10;99.90;;;;;;5025441;28;20776;-86
2022/01/30 03:26:35;;;;;;;6.32;1.67;;;9.00;99.90;;;;;;5015616;28;20477;-87
2022/01/30 03:29:05;;;;;;;4.15;1.65;;;9.10;99.90;;;;;;5016132;28;20257;-87
2022/01/30 03:31:35;;;;;;;2.80;1.17;;;9.10;99.90;;;;;;5015075;28;20265;-85
2022/01/30 03:34:07;;;;;;;3.80;1.30;;;9.00;99.90;;;;;;5013818;28;20458;-86
2022/01/30 03:36:34;;;;;;;3.53;1.48;;;9.00;99.90;;;;;;5016018;28;20302;-86
2022/01/30 03:39:04;;;;;;;3.53;1.45;;;9.00;99.90;;;;;;5014699;28;20203;-87
2022/01/30 03:41:35;;;;;;;3.85;1.27;;;9.10;99.90;;;;;;5016301;28;20219;-88
2022/01/30 03:44:03;;;;;;;3.45;1.40;;;9.00;99.90;;;;;;5016207;28;20195;-86
2022/01/30 03:46:30;;;;;;;3.85;1.00;;;9.00;99.90;;;;;;5020928;28;20294;-86
2022/01/30 03:48:58;;;;;;;5.55;1.20;;;9.10;99.90;;;;;;5016315;28;20199;-86
2022/01/30 03:51:25;;;;;;;3.10;1.38;;;9.10;99.90;;;;;;5028447;28;20203;-86
2022/01/30 03:53:52;;;;;;;3.60;1.08;;;9.00;99.90;;;;;;5026585;28;20211;-85
2022/01/30 03:56:19;;;;;;;3.22;1.20;;;9.10;99.90;;;;;;5021790;28;20295;-86
2022/01/30 03:58:48;;;;;;;2.60;0.95;;;9.10;99.90;;;;;;5023401;28;20234;-86
2022/01/30 04:01:16;;;;;;;3.92;1.05;;;9.10;99.90;;;;;;5023767;28;20199;-86
2022/01/30 04:03:42;;;;;;;3.78;1.23;;;9.10;99.90;;;;;;5017223;28;20206;-86
2022/01/30 04:06:12;;;;;;;3.33;1.33;;;9.10;99.90;;;;;;5016786;28;20575;-86
2022/01/30 04:08:40;;;;;;;4.10;1.27;;;9.20;99.90;;;;;;5028996;28;20191;-86
2022/01/30 04:11:07;;;;;;;3.30;1.30;;;9.20;99.90;;;;;;5036671;28;20453;-87
2022/01/30 04:13:34;;;;;;;2.80;1.02;;;9.30;99.90;;;;;;5036559;28;20234;-86
2022/01/30 04:16:02;;;;;;;3.13;1.38;;;9.30;99.90;;;;;;5034731;28;20234;-86
2022/01/30 04:18:29;;;;;;;4.82;1.30;;;9.30;99.90;;;;;;5036599;28;20215;-86
2022/01/30 04:20:56;;;;;;;2.92;1.30;;;9.10;99.90;;;;;;5035187;28;20195;-87
2022/01/30 04:23:24;;;;;;;3.60;1.45;;;9.10;99.90;;;;;;5046492;22;20316;-88
2022/01/30 04:25:51;;;;;;;3.90;1.50;;;9.20;99.90;;;;;;5019064;28;20646;-87
2022/01/30 04:28:19;;;;;;;3.77;1.17;;;9.30;99.90;;;;;;5020612;28;20537;-88
2022/01/30 04:30:47;;;;;;;7.10;2.60;;;9.30;99.90;;;;;;5019273;28;20975;-88
2022/01/30 04:33:15;;;;;;;8.97;2.63;;;9.40;99.90;;;;;;5019429;28;20990;-88
2022/01/30 04:35:42;;;;;;;4.80;2.05;;;9.30;99.90;;;;;;5019500;28;20512;-88
2022/01/30 04:38:20;;;;;;;6.63;2.20;;;9.40;99.90;;;;;;5019846;28;20255;-87
2022/01/30 04:52:18;;;;;;;8.88;2.35;;;9.10;99.90;;;;;;5021545;28;20199;-87
2022/01/30 04:57:44;;;;;;;7.03;2.87;;;9.10;99.90;;;;;;5028578;28;20648;-89
2022/01/30 05:00:27;;;;;;;5.22;2.60;;;9.00;99.90;;;;;;5022252;28;20446;-89
2022/01/30 05:02:57;;;;;;;10.57;2.97;;;9.00;99.90;;;;;;5020888;28;20239;-89
2022/01/30 05:05:43;;;;;;;11.82;3.15;;;8.90;99.90;;;;;;5021238;28;20215;-89
2022/01/30 05:08:11;;;;;;;7.47;2.72;;;9.00;99.90;;;;;;5027371;28;20263;-89
2022/01/30 05:10:38;;;;;;;7.70;2.95;;;9.10;99.90;;;;;;5031964;28;20212;-89
2022/01/30 05:13:11;;;;;;;5.15;3.20;;;9.10;99.90;;;;;;5023778;28;20692;-89
2022/01/30 05:15:38;;;;;;;9.63;3.58;;;9.00;99.90;;;;;;5024921;28;20202;-89
2022/01/30 05:18:06;;;;;;;10.20;3.22;;;8.80;99.90;;;;;;5027326;28;20238;-88
2022/01/30 05:20:34;;;;;;;8.25;2.78;;;9.00;99.90;;;;;;5035409;28;20208;-89
2022/01/30 05:23:01;;;;;;;12.15;3.00;;;9.00;99.90;;;;;;5031831;28;20298;-88
2022/01/30 05:25:28;;;;;;;8.27;2.50;;;8.90;99.90;;;;;;5022011;28;20230;-88
2022/01/30 05:27:56;;;;;;;8.60;3.03;;;9.00;99.90;;;;;;5021066;28;20231;-88
2022/01/30 05:30:25;;;;;;;7.97;2.75;;;8.90;99.90;;;;;;5020593;28;20207;-88
2022/01/30 05:32:52;;;;;;;11.43;3.58;;;8.90;99.90;;;;;;5020584;28;20226;-88
2022/01/30 05:35:20;;;;;;;9.10;2.25;;;8.80;99.90;;;;;;5020685;28;20369;-88
2022/01/30 05:37:47;;;;;;;12.63;3.30;;;8.90;99.90;;;;;;5021653;28;20306;-89
2022/01/30 05:40:14;;;;;;;14.77;4.32;;;8.80;99.90;;;;;;5023227;28;20805;-89
2022/01/30 05:42:42;;;;;;;7.68;3.10;;;8.70;99.90;;;;;;5020457;28;20255;-89
2022/01/30 05:45:17;;;;;;;9.20;3.15;;;8.90;99.90;;;;;;5020572;28;20747;-89
2022/01/30 05:47:52;;;;;;;10.10;3.70;;;8.90;99.90;;;;;;5020512;28;20636;-89
2022/01/30 05:50:20;;;;;;;13.85;3.75;;;9.00;99.90;;;;;;5020334;28;20196;-88
2022/01/30 05:52:47;;;;;;;8.52;3.38;;;8.90;99.90;;;;;;5020359;28;20295;-88
2022/01/30 05:55:14;;;;;;;7.78;3.80;;;8.90;99.90;;;;;;5020285;28;20243;-88
2022/01/30 05:57:40;;;;;;;8.75;2.92;;;8.90;99.90;;;;;;5020206;28;20655;-88
2022/01/30 06:00:13;;;;;;;9.48;3.25;;;8.90;99.90;;;;;;5035485;28;20195;-88
2022/01/30 06:02:40;;;;;;;7.47;3.20;;;8.90;99.90;;;;;;5036245;28;20231;-87
2022/01/30 06:05:10;;;;;;;7.88;2.95;;;8.90;99.90;;;;;;5022494;28;20203;-89
2022/01/30 06:07:37;;;;;;;7.68;3.00;;;9.00;99.90;;;;;;5022778;28;20211;-88
2022/01/30 06:10:05;;;;;;;10.88;3.00;;;8.80;99.90;;;;;;5031939;28;20222;-87
2022/01/30 06:12:32;;;;;;;7.05;2.67;;;8.90;99.90;;;;;;5035481;28;20255;-86
2022/01/30 06:14:59;;;;;;;10.00;3.67;;;8.90;99.90;;;;;;5022572;28;20204;-88
2022/01/30 06:17:29;;;;;;;11.00;4.10;;;8.90;99.90;;;;;;5022350;28;20223;-88
2022/01/30 06:19:56;;;;;;;11.52;3.97;;;8.50;99.90;;;;;;5020760;28;20231;-88
2022/01/30 06:22:24;;;;;;;10.98;3.55;;;8.80;99.90;;;;;;5021026;28;20242;-88
2022/01/30 06:24:51;;;;;;;8.23;3.60;;;8.70;99.90;;;;;;5021093;28;20196;-88
2022/01/30 06:27:18;;;;;;;6.95;3.10;;;8.60;99.90;;;;;;5020077;28;20287;-88
2022/01/30 06:29:45;;;;;;;9.05;3.53;;;8.60;99.90;;;;;;5020985;28;20241;-88
2022/01/30 06:32:14;;;;;;;8.30;3.10;;;8.60;99.90;;;;;;5019810;28;20322;-89
2022/01/30 06:34:40;;;;;;;10.52;3.13;;;8.60;99.90;;;;;;5022164;28;20207;-88
2022/01/30 06:37:07;;;;;;;8.00;2.80;;;8.50;99.90;;;;;;5023372;28;20247;-88
2022/01/30 06:39:36;;;;;;;8.15;1.88;;;8.50;99.90;;;;;;5022870;28;20649;-88
2022/01/30 06:42:03;;;;;;;11.20;3.42;;;8.60;99.90;;;;;;5022578;28;20313;-87
2022/01/30 06:44:30;;;;;;;7.00;2.95;;;8.50;99.90;;;;;;5021328;28;20326;-88
2022/01/30 06:46:56;;;;;;;9.20;3.50;;;8.40;99.90;;;;;;5021034;28;20219;-88
2022/01/30 06:49:23;;;;;;;10.82;3.22;;;8.40;99.90;;;;;;5018659;28;20235;-89
2022/01/30 06:51:50;;;;;;;11.68;3.85;;;8.30;99.90;;;;;;5023641;28;20689;-89
2022/01/30 06:54:17;;;;;;;7.55;2.80;;;8.40;99.90;;;;;;5024469;28;20266;-89
2022/01/30 06:56:45;;;;;;;7.70;3.35;;;8.30;99.90;;;;;;5019939;28;20291;-88
2022/01/30 06:59:12;;;;;;;8.45;3.40;;;8.30;99.90;;;;;;5027576;28;20203;-88
2022/01/30 07:01:39;;;;;;;6.75;2.60;;;8.20;99.90;;;;;;5029680;28;20222;-88
2022/01/30 07:04:06;;;;;;;10.80;2.88;;;8.30;99.90;;;;;;5020374;28;20229;-89
2022/01/30 07:06:33;;;;;;;12.82;3.70;;;8.20;99.90;;;;;;5020085;28;20207;-88
2022/01/30 07:09:00;;;;;;;8.45;2.97;;;8.00;99.90;;;;;;5021802;28;20211;-88
2022/01/30 07:11:27;;;;;;;10.02;3.78;;;8.00;99.90;;;;;;5019745;28;20358;-89
2022/01/30 07:13:55;;;;;;;9.15;2.95;;;7.90;99.90;;;;;;5020023;28;20334;-89
2022/01/30 07:16:22;;;;;;;6.47;2.92;;;8.00;99.90;;;;;;5020508;28;20275;-89
2022/01/30 07:18:49;;;;;;;7.03;3.22;;;7.80;99.90;;;;;;5025426;28;20262;-88
2022/01/30 07:21:16;;;;;;;10.88;3.33;;;7.60;99.90;;;;;;5035019;28;20242;-88
2022/01/30 07:23:43;;;;;;;8.55;3.03;;;8.00;99.90;;;;;;5027993;28;20766;-88
2022/01/30 07:26:11;;;;;;;8.30;3.35;;;7.90;99.90;;;;;;5022673;28;20314;-88
2022/01/30 07:28:37;;;;;;;10.63;3.60;;;7.80;99.90;;;;;;5019464;28;20234;-88
2022/01/30 07:31:06;;;;;;;7.35;2.63;;;7.50;99.90;;;;;;5019777;28;20214;-86
2022/01/30 07:33:35;;;;;;;9.48;3.60;;;7.40;99.90;;;;;;5024475;28;20290;-89
2022/01/30 07:36:02;;;;;;;8.05;2.92;;;8.00;99.90;;;;;;5021332;28;20338;-89
2022/01/30 07:38:29;;;;;;;8.57;3.15;;;7.90;99.90;;;;;;5019642;28;20717;-89
2022/01/30 07:40:56;;;;;;;12.23;3.83;;;7.90;99.90;;;;;;5019195;28;20239;-89
2022/01/30 07:43:23;;;;;;;13.10;3.55;;;7.70;99.90;;;;;;5020946;28;20238;-89
2022/01/30 07:45:50;;;;;;;5.80;2.92;;;8.00;99.90;;;;;;5019460;28;20247;-89
2022/01/30 07:48:18;;;;;;;12.52;3.63;;;8.00;99.90;;;;;;5019935;28;20204;-89
2022/01/30 07:50:45;;;;;;;10.30;3.42;;;8.10;99.90;;;;;;5019524;28;20206;-88
2022/01/30 07:53:12;;;;;;;9.20;3.47;;;7.90;99.90;;;;;;5019152;28;20243;-89
2022/01/30 07:55:39;;;;;;;10.57;5.05;;;8.10;99.90;;;;;;5018787;28;20218;-89
2022/01/30 07:58:06;;;;;;;10.10;4.20;;;8.00;99.90;;;;;;5020544;28;20255;-89
2022/01/30 08:00:33;;;;;;;11.30;3.53;;;8.10;99.90;;;;;;5020069;28;20253;-89
2022/01/30 08:02:59;;;;;;;10.35;3.60;;;8.20;99.90;;;;;;5020829;28;20259;-89
2022/01/30 08:05:28;;;;;;;16.50;3.90;;;8.20;99.90;;;;;;5021493;28;20286;-89
2022/01/30 08:07:55;;;;;;;8.85;3.67;;;8.10;99.90;;;;;;5019677;28;20199;-89
2022/01/30 08:10:22;;;;;;;8.35;3.28;;;7.80;99.90;;;;;;5019105;28;20633;-89
2022/01/30 08:12:49;;;;;;;7.50;3.35;;;8.00;99.90;;;;;;5022201;28;20315;-88
2022/01/30 08:15:16;;;;;;;10.38;3.78;;;7.90;99.90;;;;;;5020805;28;20231;-88
2022/01/30 08:17:43;;;;;;;15.05;3.80;;;7.70;99.90;;;;;;5022817;28;20291;-88
2022/01/30 08:20:10;;;;;;;13.10;3.83;;;7.60;99.90;;;;;;5020984;28;20681;-89
2022/01/30 08:22:49;;;;;;;12.40;3.65;;;7.90;99.90;;;;;;5023063;28;20235;-87
2022/01/30 08:25:17;;;;;;;11.38;3.63;;;7.90;99.90;;;;;;5024824;28;20207;-87
2022/01/30 08:27:44;;;;;;;9.88;2.90;;;7.90;99.90;;;;;;5024353;28;20199;-88
2022/01/30 08:30:12;;;;;;;14.70;2.63;;;7.70;99.90;;;;;;5024198;28;20223;-89
2022/01/30 08:32:40;;;;;;;11.65;3.20;;;8.00;99.90;;;;;;5024982;28;20703;-89
2022/01/30 08:35:08;;;;;;;10.50;3.60;;;7.60;99.90;;;;;;5023914;28;20212;-89
2022/01/30 08:37:36;;;;;;;11.32;4.00;;;8.10;99.90;;;;;;5023785;28;20665;-89
2022/01/30 08:40:05;;;;;;;14.10;6.13;;;7.60;99.90;;;;;;5029180;28;20195;-89
2022/01/30 08:42:32;;;;;;;8.15;3.65;;;7.50;99.90;;;;;;5027865;28;20235;-88
2022/01/30 08:44:59;;;;;;;17.58;4.13;;;7.90;99.90;;;;;;5024618;28;20310;-89
2022/01/30 08:47:26;;;;;;;15.65;3.22;;;7.50;99.90;;;;;;5026022;28;20203;-89
2022/01/30 08:49:53;;;;;;;11.38;4.30;;;7.60;99.90;;;;;;5036233;28;20203;-89
2022/01/30 08:52:20;;;;;;;10.85;3.75;;;7.80;99.90;;;;;;5035059;28;20235;-89
2022/01/30 08:54:47;;;;;;;10.15;3.78;;;7.40;99.90;;;;;;5034689;28;20215;-89
2022/01/30 08:57:15;;;;;;;8.10;3.08;;;7.90;99.90;;;;;;5024677;28;20230;-89
2022/01/30 08:59:42;;;;;;;12.98;3.13;;;7.50;99.90;;;;;;5026540;28;20235;-89
2022/01/30 09:02:18;;;;;;;11.02;3.50;;;7.60;99.90;;;;;;5036109;28;20227;-87
2022/01/30 09:04:44;;;;;;;11.85;3.47;;;7.80;99.90;;;;;;5036912;28;20202;-86
2022/01/30 09:07:11;;;;;;;9.55;3.50;;;7.80;99.90;;;;;;5025177;28;20204;-88
2022/01/30 09:09:38;;;;;;;6.10;2.92;;;7.90;99.90;;;;;;5027029;28;20220;-87
2022/01/30 09:12:06;;;;;;;12.70;2.92;;;8.10;99.90;;;;;;5031895;28;20215;-87
2022/01/30 09:14:36;;;;;;;14.73;3.90;;;8.00;99.90;;;;;;5036732;28;20208;-88
2022/01/30 09:17:03;;;;;;;11.07;3.30;;;8.00;99.90;;;;;;5026038;28;20191;-87
2022/01/30 09:19:30;;;;;;;8.15;2.50;;;8.10;99.90;;;;;;5039395;28;20261;-88
2022/01/30 09:21:57;;;;;;;9.45;3.03;;;8.10;99.90;;;;;;5029648;28;20211;-88
2022/01/30 09:24:24;;;;;;;9.20;3.40;;;7.90;99.90;;;;;;5026322;28;20222;-88
2022/01/30 09:26:51;;;;;;;7.85;3.17;;;7.90;99.90;;;;;;5023880;28;20212;-90
2022/01/30 09:29:18;;;;;;;15.35;3.28;;;7.50;99.90;;;;;;5023216;28;20266;-89
2022/01/30 09:31:46;;;;;;;16.80;3.05;;;8.10;99.90;;;;;;5023767;28;20212;-88
2022/01/30 09:34:13;;;;;;;14.13;3.90;;;8.00;99.90;;;;;;5023159;28;20215;-87
2022/01/30 09:36:40;;;;;;;6.65;2.58;;;8.00;99.90;;;;;;5021000;28;20217;-89
2022/01/30 09:39:09;;;;;;;16.92;3.55;;;8.00;99.90;;;;;;5022021;28;20219;-89
2022/01/30 09:41:38;;;;;;;13.48;3.90;;;7.60;99.90;;;;;;5022995;28;20214;-90
2022/01/30 09:44:05;;;;;;;13.00;3.78;;;8.10;99.90;;;;;;5021175;28;20227;-89
2022/01/30 09:46:32;;;;;;;11.75;3.10;;;8.40;99.90;;;;;;5023019;28;20207;-89
2022/01/30 09:49:01;;;;;;;18.48;4.88;;;8.30;99.90;;;;;;5023400;28;20258;-89
2022/01/30 09:51:28;;;;;;;16.17;3.10;;;8.40;99.90;;;;;;5025897;28;20207;-87
2022/01/30 09:53:55;;;;;;;10.57;3.97;;;8.50;99.90;;;;;;5033373;28;20258;-88
2022/01/30 09:56:22;;;;;;;9.27;3.83;;;8.40;99.90;;;;;;5026258;28;20226;-89
2022/01/30 09:58:48;;;;;;;11.23;3.15;;;8.60;99.90;;;;;;5023736;28;20520;-88
2022/01/30 10:01:17;;;;;;;11.07;3.83;;;8.60;99.90;;;;;;5027516;28;20215;-88
2022/01/30 10:03:47;;;;;;;16.25;5.50;;;8.50;99.90;;;;;;5024972;28;20231;-87
2022/01/30 10:06:21;;;;;;;11.30;3.50;;;8.50;99.90;;;;;;5024068;28;20223;-87
2022/01/30 10:08:56;;;;;;;14.48;4.25;;;8.20;99.90;;;;;;5023689;28;20192;-89
2022/01/30 10:11:31;;;;;;;8.95;3.25;;;8.30;99.90;;;;;;5027543;28;20196;-89
2022/01/30 10:14:06;;;;;;;11.10;3.55;;;8.40;99.90;;;;;;5026773;28;20230;-88
2022/01/30 10:16:37;;;;;;;6.10;3.22;;;8.40;99.90;;;;;;5024830;28;20214;-88
2022/01/30 10:19:13;;;;;;;10.60;3.40;;;8.50;99.90;;;;;;5026591;28;20227;-88
2022/01/30 10:21:41;;;;;;;7.25;2.08;;;8.60;99.90;;;;;;5027804;28;20210;-89
2022/01/30 10:24:29;;;;;;;10.02;3.00;;;8.60;99.90;;;;;;5049594;22;20322;-88
2022/01/30 10:27:17;;;;;;;14.13;3.50;;;8.60;99.90;;;;;;5025347;28;20218;-89
2022/01/30 10:29:53;;;;;;;12.13;3.33;;;8.60;99.90;;;;;;5027417;28;20207;-87
2022/01/30 10:32:20;;;;;;;7.43;2.83;;;8.70;99.90;;;;;;5025233;28;20206;-88
2022/01/30 10:34:57;;;;;;;16.17;4.15;;;8.70;99.90;;;;;;5026037;28;20200;-88
2022/01/30 10:37:29;;;;;;;10.60;4.15;;;8.80;99.90;;;;;;5023375;28;20210;-88
2022/01/30 10:40:12;;;;;;;9.93;2.85;;;8.70;99.90;;;;;;5023461;28;20575;-86
2022/01/30 10:42:43;;;;;;;10.60;2.78;;;8.50;99.90;;;;;;5023680;28;20236;-88
2022/01/30 10:45:14;;;;;;;12.05;2.63;;;8.60;99.90;;;;;;5023985;28;20211;-89
2022/01/30 10:47:44;;;;;;;10.27;3.47;;;8.60;99.90;;;;;;5022861;28;20242;-87
2022/01/30 10:50:14;;;;;;;7.53;3.08;;;8.50;99.90;;;;;;5022027;28;20242;-86
2022/01/30 10:52:55;;;;;;;6.35;2.55;;;8.50;99.90;;;;;;5022568;28;20296;-88
2022/01/30 10:55:37;;;;;;;13.30;3.60;;;8.60;99.90;;;;;;5023921;28;20522;-90
2022/01/30 10:58:05;;;;;;;11.57;3.17;;;8.50;99.90;;;;;;5023979;28;20562;-86
2022/01/30 11:00:46;;;;;;;15.30;3.30;;;8.70;99.90;;;;;;5026276;28;20207;-87
2022/01/30 11:03:38;;;;;;;10.45;3.30;;;8.70;99.90;;;;;;5028500;28;20537;-89
2022/01/30 11:06:14;;;;;;;21.30;3.45;;;8.90;99.90;;;;;;5036027;28;20187;-88
2022/01/30 11:08:50;;;;;;;14.02;3.50;;;8.80;99.90;;;;;;5032743;28;20218;-87
2022/01/30 11:11:30;;;;;;;11.85;3.40;;;8.70;99.90;;;;;;5026652;28;20683;-89
2022/01/30 11:14:17;;;;;;;10.80;3.80;;;8.80;99.90;;;;;;5026983;28;20282;-87
2022/01/30 11:17:02;;;;;;;13.00;3.20;;;8.70;99.90;;;;;;5025674;28;20192;-87
2022/01/30 11:19:32;;;;;;;11.43;2.97;;;8.90;99.90;;;;;;5024557;28;20231;-86
2022/01/30 11:22:01;;;;;;;10.50;2.65;;;8.90;99.90;;;;;;5026622;28;20211;-87
2022/01/30 11:24:33;;;;;;;13.75;2.83;;;8.90;99.90;;;;;;5028489;28;20661;-89
2022/01/30 11:27:01;;;;;;;11.32;3.13;;;8.90;99.90;;;;;;5029558;28;20210;-88
2022/01/30 11:29:38;;;;;;;11.00;4.10;;;9.00;99.90;;;;;;5026509;28;20205;-88
2022/01/30 11:32:07;;;;;;;11.45;3.00;;;9.00;99.90;;;;;;5024493;28;20870;-89
2022/01/30 11:34:35;;;;;;;11.77;3.42;;;9.00;99.90;;;;;;5022968;28;20523;-88
2022/01/30 11:37:05;;;;;;;9.70;4.00;;;8.70;99.90;;;;;;5026160;28;20227;-88
2022/01/30 11:39:37;;;;;;;10.30;3.53;;;8.90;99.90;;;;;;5021858;28;20211;-89
2022/01/30 11:42:13;;;;;;;9.30;3.50;;;9.00;99.90;;;;;;5021936;28;20716;-86
2022/01/30 11:44:41;;;;;;;8.10;2.50;;;9.00;99.90;;;;;;5022642;28;20439;-88
2022/01/30 11:47:20;;;;;;;10.45;2.95;;;9.20;99.90;;;;;;5022066;28;20254;-87
2022/01/30 11:49:55;;;;;;;11.45;3.00;;;9.00;99.90;;;;;;5023241;28;20709;-88
2022/01/30 11:52:49;;;;;;;11.48;4.65;;;9.00;99.90;;;;;;5021050;28;20198;-88
2022/01/30 11:55:55;;;;;;;9.30;2.60;;;9.10;99.90;;;;;;5022212;28;20203;-88
2022/01/30 11:58:47;;;;;;;10.38;3.88;;;9.20;99.90;;;;;;5024363;28;20207;-88
2022/01/30 12:01:35;;;;;;;10.07;2.80;;;9.30;99.90;;;;;;5031220;28;20206;-87
2022/01/30 12:04:04;;;;;;;9.07;2.70;;;9.40;99.90;;;;;;5025552;28;20231;-86
2022/01/30 12:06:35;;;;;;;17.83;2.80;;;9.30;99.90;;;;;;5027838;28;20231;-87
2022/01/30 12:09:04;;;;;;;9.40;3.00;;;9.30;99.90;;;;;;5026305;28;20203;-89
2022/01/30 12:12:05;;;;;;;11.40;4.05;;;9.20;99.90;;;;;;5026015;28;20291;-88
2022/01/30 12:14:57;;;;;;;13.70;3.75;;;9.30;99.90;;;;;;5028705;28;20218;-88
2022/01/30 12:17:50;;;;;;;10.45;2.78;;;9.30;99.40;;;;;;5025966;28;20206;-86
2022/01/30 12:20:22;;;;;;;8.50;2.90;;;9.20;99.70;;;;;;5036015;28;20231;-87
2022/01/30 12:22:52;;;;;;;13.68;3.85;;;9.30;99.90;;;;;;5031365;28;20243;-87
2022/01/30 12:25:25;;;;;;;14.35;3.60;;;9.30;99.80;;;;;;5026134;28;20275;-88
2022/01/30 12:27:55;;;;;;;10.48;3.05;;;9.40;99.60;;;;;;5029489;28;20212;-87
2022/01/30 12:30:40;;;;;;;9.03;2.97;;;9.40;99.60;;;;;;5030518;28;20234;-87
2022/01/30 12:33:50;;;;;;;7.13;2.67;;;9.60;99.30;;;;;;5012763;28;20557;-87
2022/01/30 12:36:22;;;;;;;7.70;3.13;;;9.50;99.10;;;;;;5027801;28;20872;-88
2022/01/30 12:39:03;;;;;;;8.60;2.75;;;9.60;99.00;;;;;;5033671;28;20246;-87
2022/01/30 12:41:34;;;;;;;10.82;3.30;;;9.40;99.00;;;;;;5035226;28;20203;-86
2022/01/30 12:44:06;;;;;;;5.93;1.95;;;9.30;99.60;;;;;;5023507;28;20250;-87
2022/01/30 12:46:45;;;;;;;11.18;3.63;;;9.30;99.10;;;;;;5024477;28;20211;-87
2022/01/30 12:49:15;;;;;;;10.07;3.10;;;9.20;99.90;;;;;;5025175;28;20206;-87
2022/01/30 12:51:43;;;;;;;12.50;4.68;;;9.20;99.90;;;;;;5029301;28;20210;-86
2022/01/30 12:54:15;;;;;;;7.90;2.60;;;9.30;99.80;;;;;;5034628;28;20237;-87
2022/01/30 12:56:49;;;;;;;8.50;2.70;;;9.30;99.10;;;;;;5028766;28;20282;-86
2022/01/30 12:59:23;;;;;;;8.73;2.93;;;9.40;99.50;;;;;;5037545;28;20233;-87
2022/01/30 13:01:52;;;;;;;12.60;3.20;;;9.20;99.30;;;;;;5037268;28;20494;-87
2022/01/30 13:04:22;;;;;;;12.02;3.15;;;9.30;99.10;;;;;;5025603;28;20235;-88
2022/01/30 13:06:51;;;;;;;7.93;2.27;;;9.20;99.00;;;;;;5025305;28;20223;-87
2022/01/30 13:09:21;;;;;;;12.55;3.47;;;9.10;99.30;;;;;;5023955;28;20442;-88
2022/01/30 13:11:52;;;;;;;10.00;2.22;;;9.00;99.80;;;;;;5024668;28;20195;-88
2022/01/30 13:14:20;;;;;;;12.93;3.20;;;9.10;99.90;;;;;;5023243;28;20274;-87
2022/01/30 13:16:49;;;;;;;9.55;2.63;;;9.30;99.90;;;;;;5023745;28;20435;-88
2022/01/30 13:19:39;;;;;;;10.07;2.67;;;9.40;99.40;;;;;;5024445;28;20215;-89
2022/01/30 13:22:09;;;;;;;7.13;2.20;;;9.40;98.90;;;;;;5018989;28;20743;-87
2022/01/30 13:24:41;;;;;;;12.23;4.25;;;9.20;99.30;;;;;;5023901;28;20203;-89
2022/01/30 13:27:09;;;;;;;11.55;4.10;;;9.20;99.40;;;;;;5025655;28;20191;-88
2022/01/30 13:29:38;;;;;;;13.07;3.10;;;9.20;99.20;;;;;;5023169;28;20542;-86
2022/01/30 13:32:10;;;;;;;11.10;3.17;;;9.30;99.20;;;;;;5024180;28;20199;-87
2022/01/30 13:34:42;;;;;;;10.90;3.30;;;9.20;99.40;;;;;;5022662;28;20209;-88
2022/01/30 13:37:15;;;;;;;9.55;3.45;;;9.30;99.40;;;;;;5021852;28;20207;-87
2022/01/30 13:39:47;;;;;;;7.60;2.90;;;9.30;99.10;;;;;;5022797;28;20274;-88
2022/01/30 13:42:43;;;;;;;6.77;2.70;;;9.20;98.80;;;;;;5026929;28;20458;-88
2022/01/30 13:48:20;;;;;;;7.07;2.55;;;9.30;97.80;;;;;;5029215;28;20660;-87
2022/01/30 13:50:58;;;;;;;11.63;2.20;;;9.40;97.30;;;;;;5026648;28;20207;-88
2022/01/30 13:53:28;;;;;;;10.27;2.70;;;9.30;97.60;;;;;;5025694;28;20251;-87
2022/01/30 13:56:02;;;;;;;12.23;3.30;;;9.20;97.70;;;;;;5029284;28;20520;-87